NCAR-RAP Real-Time Weather Data

Output produced by METARs form (02 October 2014  14:27 UTC)
found at http://weather.rap.ucar.edu/surface/
 
Conditions at: KSDF observed 02 October 2014  13:56 UTC
Temperature: 21.7°C (71°F)
Dewpoint: 15.0°C (59°F) [RH = 66%]
Pressure (altimeter): 30.02 inches Hg (1016.7 mb)
[Sea-level pressure: 1016.1 mb]
Winds: from the SSE (150 degrees) at 8 MPH (7 knots; 3.6 m/s)
Visibility: 10 or more miles (16+ km)
Ceiling: 25000 feet AGL
Clouds: few clouds at 15000 feet AGL
broken clouds at 25000 feet AGL
Present Weather: no significant weather observed at this time
KSDF 021356Z 15007KT 10SM FEW150 BKN250 22/15 A3002 RMK AO2 SLP161 T02170150